createdAt,value
2019-02-15T00:00:03.076Z,99.9
2019-02-15T00:05:02.995Z,99.9
2019-02-15T00:10:03.482Z,99.9
2019-02-15T00:15:13.534Z,99.9
2019-02-15T00:20:02.564Z,99.9
2019-02-15T00:25:02.579Z,99.9
2019-02-15T00:30:02.530Z,99.9
2019-02-15T00:35:02.484Z,99.9
2019-02-15T00:40:05.400Z,99.9
2019-02-15T00:45:05.311Z,99.9
2019-02-15T00:50:05.739Z,99.9
2019-02-15T00:55:03.127Z,99.9
2019-02-15T01:00:08.065Z,99.9
2019-02-15T01:05:05.470Z,99.9
2019-02-15T01:10:12.972Z,99.9
2019-02-15T01:15:07.855Z,99.9
2019-02-15T01:20:02.858Z,99.9
2019-02-15T01:25:02.774Z,99.9
2019-02-15T01:30:05.245Z,99.9
2019-02-15T01:35:02.562Z,99.9
2019-02-15T01:40:02.954Z,99.9
2019-02-15T01:45:02.843Z,99.9
2019-02-15T01:50:05.339Z,99.9
2019-02-15T01:55:02.697Z,99.9
2019-02-15T02:00:27.893Z,99.9
2019-02-15T02:05:02.733Z,99.9
2019-02-15T02:10:03.113Z,99.9
2019-02-15T02:20:02.953Z,99.9
2019-02-15T02:25:05.519Z,99.9
2019-02-15T02:30:02.547Z,99.9
2019-02-15T02:35:10.972Z,99.9
2019-02-15T02:40:18.604Z,99.9
2019-02-15T02:45:05.744Z,99.9
2019-02-15T02:50:05.225Z,99.9
2019-02-15T02:55:02.615Z,99.9
2019-02-15T03:00:02.585Z,99.9
2019-02-15T03:05:10.055Z,99.9
2019-02-15T03:10:03.411Z,99.9
2019-02-15T03:15:03.337Z,99.9
2019-02-15T03:20:04.985Z,99.9
2019-02-15T03:25:05.931Z,99.9
2019-02-15T03:30:02.965Z,99.9
2019-02-15T03:35:05.400Z,99.9
2019-02-15T03:40:07.850Z,99.9
2019-02-15T03:45:17.609Z,99.9
2019-02-15T03:50:07.639Z,99.9
2019-02-15T03:55:07.592Z,99.9
2019-02-15T04:00:02.543Z,99.9
2019-02-15T04:05:03.428Z,99.9
2019-02-15T04:10:07.850Z,99.9
2019-02-15T04:15:22.931Z,99.9
2019-02-15T04:20:28.224Z,99.9
2019-02-15T04:25:23.423Z,99.9
2019-02-15T04:30:05.864Z,99.9
2019-02-15T04:35:05.773Z,99.9
2019-02-15T04:40:10.768Z,99.9
2019-02-15T04:45:03.234Z,99.9
2019-02-15T04:50:15.938Z,99.9
2019-02-15T04:55:03.080Z,99.9
2019-02-15T05:00:02.969Z,99.9
2019-02-15T05:05:20.652Z,99.9
2019-02-15T05:10:03.023Z,99.9
2019-02-15T05:15:05.554Z,99.9
2019-02-15T05:20:20.273Z,99.9
2019-02-15T05:25:02.478Z,99.9
2019-02-15T05:30:03.380Z,99.9
2019-02-15T05:35:05.786Z,99.9
2019-02-15T05:40:08.224Z,99.9
2019-02-15T05:45:10.679Z,99.9
2019-02-15T05:50:07.720Z,99.9
2019-02-15T05:55:20.376Z,99.9
2019-02-15T06:00:10.923Z,99.9
2019-02-15T06:05:03.275Z,99.9
2019-02-15T06:10:02.714Z,99.9
2019-02-15T06:15:02.767Z,99.9
2019-02-15T06:20:02.748Z,99.9
2019-02-15T06:25:12.790Z,99.9
2019-02-15T06:30:07.809Z,99.9
2019-02-15T06:35:05.133Z,99.9
2019-02-15T06:40:02.511Z,99.9
2019-02-15T06:45:03.413Z,99.9
2019-02-15T06:50:05.941Z,99.9
2019-02-15T06:55:05.872Z,99.9
2019-02-15T07:00:02.740Z,99.9
2019-02-15T07:05:05.143Z,99.9
2019-02-15T07:10:02.528Z,99.9
2019-02-15T07:15:05.190Z,99.9
2019-02-15T07:20:03.235Z,99.9
2019-02-15T07:25:08.164Z,99.9
2019-02-15T07:30:03.095Z,99.9
2019-02-15T07:35:08.045Z,93.5
2019-02-15T07:40:07.549Z,99.9
2019-02-15T07:45:15.147Z,99.9
2019-02-15T07:50:03.094Z,99.9
2019-02-15T07:55:18.272Z,99.9
2019-02-15T08:00:03.180Z,99.9
2019-02-15T08:05:03.210Z,99.9
2019-02-15T08:10:32.954Z,99.9
2019-02-15T08:15:07.970Z,99.9
2019-02-15T08:20:05.464Z,99.9
2019-02-15T08:25:05.422Z,99.9
2019-02-15T08:30:08.438Z,99.9
2019-02-15T08:35:03.265Z,99.9
2019-02-15T08:40:15.260Z,99.9
2019-02-15T08:45:10.157Z,99.9
2019-02-15T08:50:05.676Z,99.9
2019-02-15T08:55:03.028Z,99.9
2019-02-15T09:00:03.017Z,99.9
2019-02-15T09:05:02.870Z,99.9
2019-02-15T09:10:03.259Z,99.9
2019-02-15T09:15:03.264Z,99.9
2019-02-15T09:20:03.357Z,99.9
2019-02-15T09:25:05.759Z,99.9
2019-02-15T09:30:05.184Z,99.9
2019-02-15T09:35:02.625Z,99.9
2019-02-15T09:40:05.564Z,99.9
2019-02-15T09:45:03.001Z,99.9
2019-02-15T09:50:05.184Z,99.9
2019-02-15T09:55:17.777Z,99.9
2019-02-15T10:00:02.715Z,99.9
2019-02-15T10:05:17.848Z,99.9
2019-02-15T10:10:03.228Z,99.9
2019-02-15T10:15:03.309Z,99.9
2019-02-15T10:20:03.315Z,99.9
2019-02-15T10:25:05.837Z,99.9
2019-02-15T10:30:07.928Z,99.9
2019-02-15T10:35:02.759Z,99.9
2019-02-15T10:40:03.200Z,99.9
2019-02-15T10:45:05.641Z,99.9
2019-02-15T10:50:07.674Z,99.9
2019-02-15T10:55:02.534Z,99.9
2019-02-15T11:00:02.560Z,99.9
2019-02-15T11:05:05.048Z,99.9
2019-02-15T11:10:02.524Z,99.9
2019-02-15T11:15:02.587Z,99.9
2019-02-15T11:20:07.656Z,99.9
2019-02-15T11:25:02.613Z,99.9
2019-02-15T11:30:08.409Z,95.9
2019-02-15T11:35:03.232Z,95.8
2019-02-15T11:40:05.170Z,97.5
2019-02-15T11:45:05.193Z,96.9
2019-02-15T11:50:03.136Z,97
2019-02-15T11:55:02.480Z,90.5
2019-02-15T12:00:14.953Z,64.6
2019-02-15T12:05:03.117Z,64.7
2019-02-15T12:10:05.114Z,62.2
2019-02-15T12:15:05.107Z,60.5
2019-02-15T12:20:03.302Z,60.7
2019-02-15T12:25:03.326Z,56.5
2019-02-15T12:30:10.894Z,54.2
2019-02-15T12:35:03.337Z,54.2
2019-02-15T12:40:02.816Z,53.3
2019-02-15T12:45:02.847Z,53.1
2019-02-15T12:50:07.862Z,50.8
2019-02-15T12:55:33.217Z,50.9
2019-02-15T13:00:05.925Z,49.3
2019-02-15T13:05:05.368Z,48.7
2019-02-15T13:10:10.292Z,48.5
2019-02-15T13:15:07.823Z,46.8
2019-02-15T13:20:05.528Z,46.3
2019-02-15T13:25:02.706Z,46.2
2019-02-15T13:30:03.077Z,44.3
2019-02-15T13:35:10.692Z,41.8
2019-02-15T13:40:03.155Z,41.8
2019-02-15T13:45:03.266Z,40.8
2019-02-15T13:50:03.306Z,40.2
2019-02-15T13:55:10.070Z,38.5
2019-02-15T14:00:03.139Z,38.5
2019-02-15T14:05:09.919Z,38.1
2019-02-15T14:10:08.393Z,37.5
2019-02-15T14:15:03.406Z,37.5
2019-02-15T14:20:22.765Z,37.1
2019-02-15T14:25:12.911Z,37.1
2019-02-15T14:30:05.457Z,37.6
2019-02-15T14:35:05.535Z,41.3
2019-02-15T14:40:08.066Z,37.3
2019-02-15T14:45:05.606Z,37.3
2019-02-15T14:50:05.341Z,37.3
2019-02-15T14:55:02.880Z,37.2
2019-02-15T15:00:10.516Z,36.8
2019-02-15T15:05:15.676Z,38.2
2019-02-15T15:10:05.692Z,42
2019-02-15T15:15:05.775Z,43.4
2019-02-15T15:20:33.239Z,43.4
2019-02-15T15:25:03.283Z,43.4
2019-02-15T15:30:03.289Z,42.1
2019-02-15T15:35:10.009Z,42.3
2019-02-15T15:40:03.297Z,42.4
2019-02-15T15:45:02.627Z,46.3
2019-02-15T15:50:05.196Z,44.5
2019-02-15T15:55:02.713Z,44.5
2019-02-15T16:00:05.247Z,41.8
2019-02-15T16:05:02.706Z,41.7
2019-02-15T16:10:05.056Z,43.8
2019-02-15T16:15:10.174Z,45.3
2019-02-15T16:20:03.279Z,45.3
2019-02-15T16:25:03.373Z,47.8
2019-02-15T16:30:05.954Z,53
2019-02-15T16:35:07.488Z,57.3
2019-02-15T16:40:05.425Z,60
2019-02-15T16:45:10.518Z,60.9
2019-02-15T16:50:10.064Z,71.1
2019-02-15T16:55:13.621Z,76.9
2019-02-15T17:00:02.617Z,77
2019-02-15T17:05:02.614Z,88.6
2019-02-15T17:10:05.584Z,97.5
2019-02-15T17:15:05.596Z,99.9
2019-02-15T17:20:15.300Z,99.9
2019-02-15T17:25:07.680Z,99.9
2019-02-15T17:30:20.387Z,99.9
2019-02-15T17:35:05.256Z,99.9
2019-02-15T17:40:07.874Z,99.9
2019-02-15T17:45:02.658Z,99.9
2019-02-15T17:50:02.645Z,99.9
2019-02-15T17:55:02.622Z,99.9
2019-02-15T18:00:02.616Z,99.9
2019-02-15T18:05:20.354Z,99.9
2019-02-15T18:10:05.367Z,99.9
2019-02-15T18:15:02.837Z,99.9
2019-02-15T18:20:07.971Z,99.9
2019-02-15T18:25:07.926Z,99.9
2019-02-15T18:30:15.540Z,99.9
2019-02-15T18:35:15.502Z,99.9
2019-02-15T18:40:05.424Z,99.9
2019-02-15T18:45:20.519Z,99.9
2019-02-15T18:50:02.532Z,99.9
2019-02-15T18:55:02.473Z,99.9
2019-02-15T19:00:03.442Z,99.9
2019-02-15T19:05:05.019Z,99.9
2019-02-15T19:10:20.762Z,99.9
2019-02-15T19:15:05.548Z,99.9
2019-02-15T19:20:07.641Z,99.9
2019-02-15T19:25:02.551Z,99.9
2019-02-15T19:30:02.553Z,99.9
2019-02-15T19:35:05.081Z,99.9
2019-02-15T19:40:08.501Z,99.9
2019-02-15T19:45:05.906Z,99.9
2019-02-15T19:50:05.432Z,99.9
2019-02-15T20:00:10.462Z,99.9
2019-02-15T20:05:02.910Z,99.9
2019-02-15T20:10:05.824Z,99.9
2019-02-15T20:15:05.839Z,99.9
2019-02-15T20:20:18.106Z,99.9
2019-02-15T20:25:07.907Z,99.9
2019-02-15T20:30:07.959Z,99.9
2019-02-15T20:35:05.438Z,99.9
2019-02-15T20:40:05.384Z,99.9
2019-02-15T20:45:07.871Z,99.9
2019-02-15T20:50:05.333Z,99.9
2019-02-15T20:55:02.757Z,99.9
2019-02-15T21:00:02.819Z,99.9
2019-02-15T21:05:05.356Z,99.9
2019-02-15T21:10:05.303Z,99.9
2019-02-15T21:15:05.444Z,99.9
2019-02-15T21:20:08.351Z,99.9
2019-02-15T21:25:02.489Z,99.9
2019-02-15T21:30:11.010Z,99.9
2019-02-15T21:35:03.298Z,99.9
2019-02-15T21:40:05.231Z,99.9
2019-02-15T21:45:07.620Z,99.9
2019-02-15T21:50:17.918Z,99.9
2019-02-15T21:55:05.315Z,99.9
2019-02-15T22:00:10.971Z,99.9
2019-02-15T22:05:03.194Z,99.9
2019-02-15T22:10:25.239Z,99.9
2019-02-15T22:15:10.712Z,99.9
2019-02-15T22:20:05.178Z,99.9
2019-02-15T22:25:15.563Z,99.9
2019-02-15T22:30:11.005Z,99.9
2019-02-15T22:35:31.094Z,99.9
2019-02-15T22:40:03.402Z,99.9
2019-02-15T22:45:05.772Z,99.9
2019-02-15T22:50:02.636Z,99.9
2019-02-15T22:55:07.516Z,99.9
2019-02-15T23:00:13.266Z,99.9
2019-02-15T23:05:05.817Z,99.9
2019-02-15T23:10:03.131Z,99.9
2019-02-15T23:15:03.074Z,99.9
2019-02-15T23:20:08.099Z,99.9
2019-02-15T23:25:08.011Z,99.9
2019-02-15T23:30:02.872Z,99.9
2019-02-15T23:35:02.721Z,99.9
2019-02-15T23:40:02.971Z,99.9
2019-02-15T23:45:18.023Z,99.9
2019-02-15T23:50:05.425Z,99.9
2019-02-15T23:55:07.802Z,99.9
